createdAt,value
2022-10-09T00:02:25.774Z,14.16
2022-10-09T00:05:28.040Z,14.14
2022-10-09T00:08:44.753Z,14.19
2022-10-09T00:11:46.444Z,14.24
2022-10-09T00:15:00.765Z,14.28
2022-10-09T00:18:02.594Z,14.12
2022-10-09T00:21:29.796Z,14.16
2022-10-09T00:24:37.776Z,14.13
2022-10-09T00:27:52.793Z,14.10
2022-10-09T00:30:55.156Z,14.09
2022-10-09T00:34:09.768Z,14.09
2022-10-09T00:37:17.795Z,14.13
2022-10-09T00:40:26.339Z,14.14
2022-10-09T00:43:46.814Z,14.16
2022-10-09T00:46:55.434Z,13.98
2022-10-09T00:50:09.820Z,14.09
2022-10-09T00:53:27.814Z,14.09
2022-10-09T00:56:29.620Z,14.07
2022-10-09T00:59:46.769Z,14.04
2022-10-09T01:03:01.808Z,13.97
2022-10-09T01:06:31.805Z,13.89
2022-10-09T01:09:53.800Z,13.89
2022-10-09T01:13:22.358Z,13.88
2022-10-09T01:16:35.806Z,13.87
2022-10-09T01:20:09.806Z,13.85
2022-10-09T01:23:43.444Z,13.84
2022-10-09T01:27:00.791Z,13.85
2022-10-09T01:30:18.861Z,13.83
2022-10-09T01:33:20.642Z,13.80
2022-10-09T01:36:36.845Z,13.81
2022-10-09T01:39:53.813Z,13.80
2022-10-09T01:43:02.699Z,13.74
2022-10-09T01:46:36.006Z,13.77
2022-10-09T01:49:56.819Z,13.76
2022-10-09T01:53:09.555Z,13.75
2022-10-09T01:56:23.854Z,13.74
2022-10-09T01:59:39.471Z,13.80
2022-10-09T02:02:49.111Z,13.83
2022-10-09T02:05:58.208Z,13.82
2022-10-09T02:09:07.827Z,13.82
2022-10-09T02:12:18.798Z,13.80
2022-10-09T02:15:28.885Z,13.74
2022-10-09T02:18:49.846Z,13.73
2022-10-09T02:22:13.867Z,13.74
2022-10-09T02:25:28.885Z,13.78
2022-10-09T02:28:39.076Z,13.76
2022-10-09T02:31:48.430Z,13.72
2022-10-09T02:34:57.863Z,13.73
2022-10-09T02:38:12.815Z,13.73
2022-10-09T02:41:28.841Z,13.71
2022-10-09T02:44:30.582Z,13.69
2022-10-09T02:47:44.870Z,13.71
2022-10-09T02:50:46.600Z,13.74
2022-10-09T02:54:01.866Z,13.76
2022-10-09T02:57:10.405Z,13.72
2022-10-09T03:00:18.857Z,13.72
2022-10-09T03:03:27.360Z,13.77
2022-10-09T03:06:40.055Z,13.76
2022-10-09T03:09:54.841Z,13.74
2022-10-09T03:12:56.656Z,13.73
2022-10-09T03:16:12.996Z,13.74
2022-10-09T03:19:21.843Z,13.77
2022-10-09T03:22:37.110Z,13.78
2022-10-09T03:25:45.839Z,13.71
2022-10-09T03:28:55.826Z,13.69
2022-10-09T03:32:10.988Z,13.72
2022-10-09T03:35:19.502Z,13.73
2022-10-09T03:38:33.920Z,13.68
2022-10-09T03:41:41.924Z,13.70
2022-10-09T03:44:50.396Z,13.75
2022-10-09T03:47:58.863Z,13.82
2022-10-09T03:51:07.388Z,13.88
2022-10-09T03:54:21.868Z,13.99
2022-10-09T03:57:30.606Z,14.09
2022-10-09T04:00:45.951Z,14.21
2022-10-09T04:03:53.884Z,14.40
2022-10-09T04:07:08.894Z,14.50
2022-10-09T04:10:11.080Z,14.59
2022-10-09T04:13:25.912Z,14.63
2022-10-09T04:16:33.939Z,14.63
2022-10-09T04:19:42.445Z,14.66
2022-10-09T04:23:03.883Z,14.67
2022-10-09T04:26:12.904Z,14.59
2022-10-09T04:29:27.879Z,14.69
2022-10-09T04:32:36.552Z,14.68
2022-10-09T04:35:48.917Z,14.67
2022-10-09T04:39:03.893Z,14.69
2022-10-09T04:42:12.554Z,14.72
2022-10-09T04:45:20.934Z,14.72
2022-10-09T04:48:35.911Z,14.66
2022-10-09T04:51:43.899Z,14.64
2022-10-09T04:54:52.508Z,14.64
2022-10-09T04:58:00.998Z,14.62
2022-10-09T05:01:20.030Z,14.59
2022-10-09T05:04:21.893Z,14.58
2022-10-09T05:07:36.927Z,14.59
2022-10-09T05:10:51.915Z,14.63
2022-10-09T05:13:55.640Z,14.67
2022-10-09T05:17:14.165Z,14.69
2022-10-09T05:20:29.190Z,14.70
2022-10-09T05:23:43.921Z,14.72
2022-10-09T05:26:45.643Z,14.73
2022-10-09T05:29:59.927Z,14.67
2022-10-09T05:33:08.687Z,14.70
2022-10-09T05:36:16.989Z,14.75
2022-10-09T05:39:25.620Z,14.73
2022-10-09T05:42:39.931Z,14.76
2022-10-09T05:45:47.945Z,14.80
2022-10-09T05:48:58.911Z,14.82
2022-10-09T05:52:13.973Z,14.76
2022-10-09T05:55:22.509Z,14.78
2022-10-09T05:58:36.951Z,14.80
2022-10-09T06:01:55.116Z,14.81
2022-10-09T06:04:56.907Z,14.81
2022-10-09T06:08:11.983Z,14.81
2022-10-09T06:11:17.224Z,14.82
2022-10-09T06:14:31.926Z,14.78
2022-10-09T06:17:33.939Z,14.78
2022-10-09T06:21:02.950Z,14.74
2022-10-09T06:24:22.261Z,14.70
2022-10-09T06:27:39.927Z,14.74
2022-10-09T06:30:41.726Z,14.73
2022-10-09T06:33:56.983Z,14.80
2022-10-09T06:36:58.727Z,14.89
2022-10-09T06:40:13.959Z,14.96
2022-10-09T06:43:28.978Z,15.04
2022-10-09T06:46:40.805Z,15.13
2022-10-09T06:49:56.003Z,15.17
2022-10-09T06:53:03.978Z,15.20
2022-10-09T06:56:13.083Z,15.30
2022-10-09T06:59:27.974Z,15.39
2022-10-09T07:02:40.459Z,15.48
2022-10-09T07:05:50.963Z,15.56
2022-10-09T07:09:02.436Z,15.62
2022-10-09T07:12:11.032Z,15.68
2022-10-09T07:15:19.534Z,15.75
2022-10-09T07:18:34.015Z,15.89
2022-10-09T07:21:46.226Z,15.97
2022-10-09T07:25:01.179Z,16.06
2022-10-09T07:28:03.061Z,16.13
2022-10-09T07:31:19.038Z,16.26
2022-10-09T07:34:27.026Z,16.37
2022-10-09T07:37:35.583Z,16.45
2022-10-09T07:40:50.001Z,16.56
2022-10-09T07:43:59.051Z,16.72
2022-10-09T07:47:14.108Z,16.85
2022-10-09T07:50:23.062Z,16.96
2022-10-09T07:53:38.059Z,17.06
2022-10-09T07:56:53.027Z,17.12
2022-10-09T07:59:54.724Z,17.17
2022-10-09T08:03:09.083Z,17.22
2022-10-09T08:06:10.898Z,17.24
2022-10-09T08:09:26.015Z,17.29
2022-10-09T08:12:34.039Z,17.35
2022-10-09T08:15:43.850Z,17.28
2022-10-09T08:18:51.991Z,17.40
2022-10-09T08:22:07.316Z,17.42
2022-10-09T08:25:16.078Z,17.48
2022-10-09T08:28:25.071Z,17.58
2022-10-09T08:31:35.071Z,17.65
2022-10-09T08:34:43.554Z,17.83
2022-10-09T08:37:52.007Z,17.91
2022-10-09T08:41:15.029Z,17.99
2022-10-09T08:44:29.256Z,18.05
2022-10-09T08:47:54.119Z,18.13
2022-10-09T08:50:58.770Z,18.18
2022-10-09T08:54:31.067Z,18.25
2022-10-09T08:57:39.889Z,18.29
2022-10-09T09:01:09.086Z,18.37
2022-10-09T09:04:36.004Z,18.48
2022-10-09T09:08:07.054Z,18.49
2022-10-09T09:11:28.752Z,18.61
2022-10-09T09:15:05.048Z,18.71
2022-10-09T09:18:32.306Z,18.78
2022-10-09T09:21:55.043Z,18.92
2022-10-09T09:24:58.620Z,19.04
2022-10-09T09:28:27.110Z,19.16
2022-10-09T09:31:34.749Z,19.02
2022-10-09T09:34:49.095Z,19.12
2022-10-09T09:37:50.990Z,19.03
2022-10-09T09:41:06.082Z,19.23
2022-10-09T09:44:17.139Z,19.26
2022-10-09T09:47:34.527Z,19.37
2022-10-09T09:50:52.932Z,19.47
2022-10-09T09:54:24.079Z,19.66
2022-10-09T09:57:41.124Z,20.00
2022-10-09T10:01:00.281Z,19.82
2022-10-09T10:04:10.096Z,20.26
2022-10-09T10:07:29.932Z,20.43
2022-10-09T10:10:39.089Z,20.38
2022-10-09T10:13:49.112Z,20.13
2022-10-09T10:17:00.090Z,20.26
2022-10-09T10:20:15.115Z,20.34
2022-10-09T10:23:36.379Z,20.17
2022-10-09T10:26:50.087Z,20.40
2022-10-09T10:30:09.112Z,20.55
2022-10-09T10:33:21.108Z,20.54
2022-10-09T10:36:36.156Z,20.30
2022-10-09T10:39:45.863Z,20.39
2022-10-09T10:43:21.100Z,20.31
2022-10-09T10:46:44.121Z,20.30
2022-10-09T10:49:53.232Z,20.00
2022-10-09T10:53:23.159Z,20.10
2022-10-09T10:56:40.197Z,20.10
2022-10-09T11:00:10.110Z,20.46
2022-10-09T11:03:41.807Z,20.74
2022-10-09T11:07:09.125Z,20.30
2022-10-09T11:10:38.139Z,19.98
2022-10-09T11:14:01.910Z,19.81
2022-10-09T11:17:37.140Z,19.73
2022-10-09T11:21:10.113Z,19.68
2022-10-09T11:25:05.146Z,19.57
2022-10-09T11:28:19.386Z,19.62
2022-10-09T11:31:42.198Z,19.58
2022-10-09T11:35:14.129Z,19.64
2022-10-09T11:38:27.115Z,19.72
2022-10-09T11:41:43.160Z,19.80
2022-10-09T11:45:12.125Z,21.32
2022-10-09T11:48:48.023Z,21.80
2022-10-09T11:52:09.188Z,21.70
2022-10-09T11:55:23.690Z,25.37
2022-10-09T11:58:32.136Z,26.46
2022-10-09T12:01:42.165Z,25.16
2022-10-09T12:04:54.847Z,27.86
2022-10-09T12:08:26.262Z,29.64
2022-10-09T12:11:36.156Z,29.34
2022-10-09T12:14:47.999Z,26.36
2022-10-09T12:18:03.188Z,24.97
2022-10-09T12:21:24.664Z,26.80
2022-10-09T12:24:51.225Z,25.64
2022-10-09T12:28:07.457Z,23.73
2022-10-09T12:31:26.213Z,23.32
2022-10-09T12:34:48.211Z,21.88
2022-10-09T12:38:03.202Z,21.69
2022-10-09T12:41:20.277Z,21.16
2022-10-09T12:44:35.969Z,21.25
2022-10-09T12:47:50.199Z,21.13
2022-10-09T12:50:53.188Z,21.99
2022-10-09T12:54:15.220Z,21.51
2022-10-09T12:57:31.175Z,23.24
2022-10-09T13:00:40.422Z,22.50
2022-10-09T13:03:58.541Z,21.56
2022-10-09T13:07:18.605Z,21.01
2022-10-09T13:10:36.189Z,20.45
2022-10-09T13:13:45.332Z,20.25
2022-10-09T13:17:00.319Z,20.08
2022-10-09T13:20:25.371Z,20.05
2022-10-09T13:23:48.024Z,20.00
2022-10-09T13:26:49.760Z,19.87
2022-10-09T13:30:04.279Z,19.92
2022-10-09T13:33:20.236Z,19.97
2022-10-09T13:36:35.244Z,20.02
2022-10-09T13:39:43.832Z,19.98
2022-10-09T13:43:02.251Z,20.01
2022-10-09T13:46:10.824Z,19.86
2022-10-09T13:49:19.220Z,19.95
2022-10-09T13:52:34.266Z,19.94
2022-10-09T13:55:49.220Z,19.84
2022-10-09T13:58:58.331Z,19.75
2022-10-09T14:02:07.564Z,19.65
2022-10-09T14:05:15.826Z,19.62
2022-10-09T14:08:32.504Z,19.63
2022-10-09T14:11:34.796Z,19.62
2022-10-09T14:14:49.254Z,19.59
2022-10-09T14:17:51.376Z,19.60
2022-10-09T14:21:06.283Z,19.56
2022-10-09T14:24:14.593Z,19.52
2022-10-09T14:27:29.337Z,19.48
2022-10-09T14:30:38.296Z,19.45
2022-10-09T14:33:48.354Z,19.43
2022-10-09T14:36:57.295Z,19.49
2022-10-09T14:40:12.267Z,19.53
2022-10-09T14:43:20.276Z,19.61
2022-10-09T14:46:30.047Z,19.61
2022-10-09T14:49:38.284Z,19.59
2022-10-09T14:52:47.018Z,19.57
2022-10-09T14:55:55.302Z,19.57
2022-10-09T14:59:05.362Z,19.59
2022-10-09T15:02:22.296Z,19.56
2022-10-09T15:05:30.903Z,19.51
2022-10-09T15:08:41.314Z,19.48
2022-10-09T15:11:56.283Z,19.46
2022-10-09T15:14:58.030Z,19.33
2022-10-09T15:18:12.312Z,19.20
2022-10-09T15:21:37.278Z,19.12
2022-10-09T15:24:39.057Z,19.07
2022-10-09T15:27:55.060Z,19.05
2022-10-09T15:31:07.304Z,18.97
2022-10-09T15:34:18.170Z,18.90
2022-10-09T15:37:33.486Z,18.89
2022-10-09T15:40:50.462Z,18.84
2022-10-09T15:44:01.066Z,18.81
2022-10-09T15:47:09.305Z,18.78
2022-10-09T15:50:20.424Z,18.78
2022-10-09T15:53:30.331Z,18.72
2022-10-09T15:56:45.333Z,18.62
2022-10-09T15:59:47.172Z,18.55
2022-10-09T16:03:02.346Z,18.43
2022-10-09T16:06:14.283Z,18.29
2022-10-09T16:09:30.383Z,18.22
2022-10-09T16:12:32.143Z,18.12
2022-10-09T16:15:48.342Z,18.03
2022-10-09T16:18:51.244Z,17.94
2022-10-09T16:22:06.310Z,17.87
2022-10-09T16:25:21.302Z,17.78
2022-10-09T16:28:30.844Z,17.71
2022-10-09T16:31:42.300Z,17.65
2022-10-09T16:34:50.888Z,17.60
2022-10-09T16:37:59.339Z,17.55
2022-10-09T16:41:19.381Z,17.47
2022-10-09T16:44:28.348Z,17.42
2022-10-09T16:47:36.963Z,17.32
2022-10-09T16:50:47.362Z,17.25
2022-10-09T16:53:59.423Z,17.09
2022-10-09T16:57:07.347Z,17.17
2022-10-09T17:00:19.374Z,17.13
2022-10-09T17:03:28.347Z,17.07
2022-10-09T17:06:46.363Z,17.01
2022-10-09T17:09:48.194Z,16.98
2022-10-09T17:13:10.456Z,16.92
2022-10-09T17:16:28.347Z,16.85
2022-10-09T17:19:44.392Z,16.78
2022-10-09T17:22:52.661Z,16.66
2022-10-09T17:26:17.388Z,16.61
2022-10-09T17:29:25.374Z,16.55
2022-10-09T17:32:33.888Z,16.48
2022-10-09T17:35:48.342Z,16.43
2022-10-09T17:38:50.739Z,16.38
2022-10-09T17:42:05.359Z,16.33
2022-10-09T17:45:08.576Z,16.29
2022-10-09T17:48:24.350Z,16.28
2022-10-09T17:51:39.378Z,16.23
2022-10-09T17:54:48.031Z,16.21
2022-10-09T17:57:56.424Z,16.18
2022-10-09T18:01:07.428Z,16.11
2022-10-09T18:04:21.386Z,16.12
2022-10-09T18:07:30.117Z,16.13
2022-10-09T18:10:38.430Z,16.03
2022-10-09T18:13:47.520Z,15.98
2022-10-09T18:17:02.375Z,15.97
2022-10-09T18:20:11.393Z,15.91
2022-10-09T18:23:26.660Z,15.93
2022-10-09T18:26:35.430Z,15.97
2022-10-09T18:29:44.017Z,15.97
2022-10-09T18:32:52.842Z,15.97
2022-10-09T18:36:12.419Z,15.93
2022-10-09T18:39:14.950Z,15.85
2022-10-09T18:42:29.455Z,15.81
2022-10-09T18:45:31.541Z,15.76
2022-10-09T18:48:47.403Z,15.68
2022-10-09T18:52:03.407Z,15.71
2022-10-09T18:55:14.952Z,15.70
2022-10-09T18:58:23.462Z,15.72
2022-10-09T19:01:32.210Z,15.70
2022-10-09T19:04:47.479Z,15.71
2022-10-09T19:07:56.174Z,15.74
2022-10-09T19:11:04.455Z,15.67
2022-10-09T19:14:13.928Z,15.78
2022-10-09T19:17:22.444Z,15.82
2022-10-09T19:20:40.473Z,15.84
2022-10-09T19:23:50.843Z,15.83
2022-10-09T19:27:06.420Z,15.83
2022-10-09T19:30:09.011Z,15.70
2022-10-09T19:33:24.494Z,15.64
2022-10-09T19:36:26.259Z,15.57
2022-10-09T19:39:41.437Z,15.45
2022-10-09T19:42:50.113Z,15.35
2022-10-09T19:46:09.503Z,15.34
2022-10-09T19:49:18.212Z,15.35
2022-10-09T19:52:32.486Z,15.26
2022-10-09T19:55:41.226Z,15.28
2022-10-09T19:58:51.443Z,15.24
2022-10-09T20:02:00.036Z,15.24
2022-10-09T20:05:08.479Z,15.18
2022-10-09T20:08:17.444Z,15.15
2022-10-09T20:11:26.470Z,15.11
2022-10-09T20:14:41.427Z,15.04
2022-10-09T20:17:50.026Z,15.03
2022-10-09T20:21:04.431Z,15.00
2022-10-09T20:24:12.752Z,14.93
2022-10-09T20:27:27.473Z,14.81
2022-10-09T20:30:36.060Z,14.77
2022-10-09T20:33:54.459Z,14.72
2022-10-09T20:36:56.178Z,14.57
2022-10-09T20:40:11.476Z,14.42
2022-10-09T20:43:22.643Z,14.37
2022-10-09T20:46:34.693Z,14.31
2022-10-09T20:49:43.550Z,14.24
2022-10-09T20:52:52.527Z,14.24
2022-10-09T20:56:07.485Z,14.19
2022-10-09T20:59:17.266Z,14.15
2022-10-09T21:02:25.540Z,14.14
2022-10-09T21:05:46.482Z,14.17
2022-10-09T21:08:55.494Z,14.10
2022-10-09T21:12:10.494Z,14.11
2022-10-09T21:15:12.251Z,14.04
2022-10-09T21:18:26.496Z,14.04
2022-10-09T21:21:29.879Z,14.01
2022-10-09T21:24:51.488Z,13.99
2022-10-09T21:27:59.542Z,13.93
2022-10-09T21:31:09.375Z,13.94
2022-10-09T21:34:24.525Z,13.88
2022-10-09T21:37:35.605Z,13.92
2022-10-09T21:40:46.701Z,13.86
2022-10-09T21:44:01.491Z,13.84
2022-10-09T21:47:09.536Z,13.74
2022-10-09T21:50:18.177Z,13.64
2022-10-09T21:53:26.532Z,13.60
2022-10-09T21:56:35.322Z,13.57
2022-10-09T21:59:43.501Z,13.55
2022-10-09T22:02:52.410Z,13.49
2022-10-09T22:06:17.779Z,13.45
2022-10-09T22:09:27.515Z,13.47
2022-10-09T22:12:36.127Z,13.45
2022-10-09T22:15:51.597Z,13.48
2022-10-09T22:18:59.511Z,13.40
2022-10-09T22:22:08.250Z,13.42
2022-10-09T22:25:29.527Z,13.41
2022-10-09T22:28:31.818Z,13.31
2022-10-09T22:31:46.563Z,13.28
2022-10-09T22:34:57.529Z,13.29
2022-10-09T22:38:12.565Z,13.32
2022-10-09T22:41:18.196Z,13.26
2022-10-09T22:44:32.533Z,13.26
2022-10-09T22:47:41.087Z,13.25
2022-10-09T22:50:55.507Z,13.24
2022-10-09T22:54:04.909Z,13.24
2022-10-09T22:57:19.528Z,13.22
2022-10-09T23:00:28.196Z,13.16
2022-10-09T23:03:36.515Z,13.13
2022-10-09T23:06:45.935Z,13.14
2022-10-09T23:09:54.532Z,13.14
2022-10-09T23:13:03.077Z,13.17
2022-10-09T23:16:18.623Z,13.14
2022-10-09T23:19:27.151Z,13.11
2022-10-09T23:22:41.537Z,13.13
2022-10-09T23:25:56.615Z,13.12
2022-10-09T23:29:14.526Z,13.11
2022-10-09T23:32:23.197Z,13.08
2022-10-09T23:35:38.555Z,13.03
2022-10-09T23:38:41.022Z,13.04
2022-10-09T23:41:55.554Z,13.01
2022-10-09T23:44:57.352Z,13.01
2022-10-09T23:48:11.567Z,13.00
2022-10-09T23:51:14.975Z,13.00
2022-10-09T23:54:29.587Z,12.99
2022-10-09T23:57:44.647Z,12.81
